Wheatley, United Kingdom
Current Conditions -  °F | °C
As of 7:50 AM on Friday 24 Oct 2014 (Local Time) from EGTK Reporting Station
Broken Clouds Broken Clouds  
Wind Chill: 55°   Ceiling: 1600
Heat Index: 55°   Visibility: 6mi
Dew Point: 55°   Wind: 9mph
Humidity: 100%   Direction: 220°SW
Pressure: 29.91"   Gusts: NA
Location:  51.75°N, 1.14°W
Report Text: EGTK 240650Z 22008KT 9999 BKN016 13/13 Q1013
Loading
Personal Weather Stations






























Interactive Weather Map New forecast layout! Learn more

10-Day Weather Forecast

Advertisements
Track Severe Weather on mobile